createdAt,value
2022-10-29T00:00:29.032Z,5.72
2022-10-29T00:01:30.734Z,5.53
2022-10-29T00:02:36.660Z,5.40
2022-10-29T00:03:38.868Z,5.03
2022-10-29T00:04:41.793Z,5.13
2022-10-29T00:05:45.946Z,4.65
2022-10-29T00:06:53.734Z,4.72
2022-10-29T00:07:56.249Z,4.75
2022-10-29T00:08:59.069Z,5.35
2022-10-29T00:10:05.622Z,5.22
2022-10-29T00:11:21.314Z,5.10
2022-10-29T00:12:22.686Z,4.95
2022-10-29T00:13:25.461Z,4.90
2022-10-29T00:14:29.006Z,5.10
2022-10-29T00:15:32.013Z,5.03
2022-10-29T00:16:38.994Z,5.50
2022-10-29T00:17:40.363Z,5.40
2022-10-29T00:18:43.875Z,6.00
2022-10-29T00:19:47.592Z,6.65
2022-10-29T00:20:50.132Z,7.55
2022-10-29T00:21:53.865Z,6.93
2022-10-29T00:22:55.915Z,8.18
2022-10-29T00:23:58.030Z,9.63
2022-10-29T00:24:59.781Z,8.23
2022-10-29T00:26:02.508Z,8.10
2022-10-29T00:27:04.856Z,8.13
2022-10-29T00:28:07.691Z,8.35
2022-10-29T00:29:09.726Z,8.10
2022-10-29T00:30:15.328Z,7.57
2022-10-29T00:31:22.693Z,6.95
2022-10-29T00:32:25.983Z,6.35
2022-10-29T00:33:27.664Z,5.78
2022-10-29T00:34:31.750Z,4.80
2022-10-29T00:35:34.990Z,4.55
2022-10-29T00:36:37.652Z,4.30
2022-10-29T00:37:40.934Z,3.67
2022-10-29T00:38:45.248Z,3.17
2022-10-29T00:39:46.654Z,3.10
2022-10-29T00:40:48.695Z,3.30
2022-10-29T00:41:53.145Z,3.58
2022-10-29T00:43:11.745Z,3.65
2022-10-29T00:44:35.991Z,3.65
2022-10-29T00:45:39.682Z,4.47
2022-10-29T00:46:53.374Z,4.50
2022-10-29T00:47:57.776Z,4.18
2022-10-29T00:49:03.006Z,4.43
2022-10-29T00:50:08.867Z,3.75
2022-10-29T00:51:13.252Z,3.65
2022-10-29T00:52:18.060Z,4.43
2022-10-29T00:53:26.444Z,5.40
2022-10-29T00:54:30.848Z,4.97
2022-10-29T00:55:32.237Z,4.80
2022-10-29T00:56:35.696Z,4.63
2022-10-29T00:57:40.008Z,5.20
2022-10-29T00:58:49.236Z,5.22
2022-10-29T00:59:50.802Z,5.65
2022-10-29T01:00:53.223Z,5.40
2022-10-29T01:01:56.163Z,5.25
2022-10-29T01:03:00.159Z,5.00
2022-10-29T01:04:04.947Z,5.28
2022-10-29T01:05:07.405Z,4.93
2022-10-29T01:06:08.934Z,4.60
2022-10-29T01:07:11.055Z,4.07
2022-10-29T01:08:15.380Z,4.68
2022-10-29T01:09:18.249Z,4.53
2022-10-29T01:10:28.876Z,4.18
2022-10-29T01:11:38.698Z,3.67
2022-10-29T01:13:00.483Z,4.50
2022-10-29T01:14:19.505Z,3.95
2022-10-29T01:15:39.243Z,3.70
2022-10-29T01:16:53.181Z,3.17
2022-10-29T01:18:05.055Z,3.38
2022-10-29T01:19:09.042Z,3.40
2022-10-29T01:20:27.180Z,3.03
2022-10-29T01:21:46.103Z,2.90
2022-10-29T01:22:47.810Z,3.50
2022-10-29T01:24:07.895Z,3.40
2022-10-29T01:25:36.144Z,3.47
2022-10-29T01:26:50.343Z,3.50
2022-10-29T01:28:10.088Z,3.03
2022-10-29T01:29:18.900Z,3.58
2022-10-29T01:30:40.695Z,3.25
2022-10-29T01:31:48.936Z,3.30
2022-10-29T01:33:00.732Z,4.03
2022-10-29T01:34:17.549Z,3.45
2022-10-29T01:35:23.933Z,3.97
2022-10-29T01:36:44.593Z,3.53
2022-10-29T01:38:03.140Z,3.47
2022-10-29T01:39:13.774Z,3.40
2022-10-29T01:40:26.539Z,3.50
2022-10-29T01:41:41.969Z,3.25
2022-10-29T01:42:50.235Z,3.60
2022-10-29T01:44:00.183Z,3.58
2022-10-29T01:45:13.810Z,3.88
2022-10-29T01:46:33.415Z,3.25
2022-10-29T01:47:38.632Z,3.45
2022-10-29T01:48:53.169Z,3.30
2022-10-29T01:50:02.329Z,3.05
2022-10-29T01:51:18.995Z,3.30
2022-10-29T01:52:22.027Z,2.92
2022-10-29T01:53:25.464Z,2.97
2022-10-29T01:54:27.291Z,3.13
2022-10-29T01:55:30.681Z,3.42
2022-10-29T01:56:32.857Z,2.88
2022-10-29T01:57:52.892Z,3.42
2022-10-29T01:59:01.117Z,3.42
2022-10-29T02:00:09.027Z,3.47
2022-10-29T02:01:29.924Z,3.47
2022-10-29T02:02:43.326Z,3.53
2022-10-29T02:04:09.679Z,3.38
2022-10-29T02:05:29.724Z,3.70
2022-10-29T02:06:52.496Z,3.47
2022-10-29T02:08:12.288Z,3.42
2022-10-29T02:09:14.713Z,3.53
2022-10-29T02:10:20.952Z,3.70
2022-10-29T02:11:46.176Z,3.78
2022-10-29T02:12:52.762Z,3.80
2022-10-29T02:14:02.917Z,3.83
2022-10-29T02:15:07.968Z,3.78
2022-10-29T02:16:10.224Z,4.00
2022-10-29T02:17:13.036Z,4.60
2022-10-29T02:18:15.929Z,3.80
2022-10-29T02:19:27.761Z,4.43
2022-10-29T02:20:30.746Z,4.13
2022-10-29T02:21:33.145Z,3.80
2022-10-29T02:22:37.114Z,3.95
2022-10-29T02:23:39.696Z,3.85
2022-10-29T02:24:41.729Z,3.58
2022-10-29T02:25:43.947Z,3.40
2022-10-29T02:26:45.735Z,3.50
2022-10-29T02:27:49.317Z,4.72
2022-10-29T02:28:50.742Z,4.10
2022-10-29T02:29:53.629Z,4.47
2022-10-29T02:30:56.001Z,4.90
2022-10-29T02:31:58.063Z,5.00
2022-10-29T02:32:59.957Z,5.68
2022-10-29T02:34:02.640Z,5.38
2022-10-29T02:35:04.999Z,5.20
2022-10-29T02:36:07.102Z,4.57
2022-10-29T02:37:08.773Z,4.35
2022-10-29T02:38:11.669Z,4.63
2022-10-29T02:39:13.063Z,3.90
2022-10-29T02:40:14.881Z,4.13
2022-10-29T02:41:16.282Z,3.80
2022-10-29T02:42:17.950Z,4.00
2022-10-29T02:44:22.198Z,3.85
2022-10-29T02:45:24.006Z,3.70
2022-10-29T02:46:26.420Z,4.32
2022-10-29T02:47:28.319Z,4.20
2022-10-29T02:48:31.648Z,4.30
2022-10-29T02:49:33.890Z,4.50
2022-10-29T02:50:35.920Z,4.82
2022-10-29T02:51:39.001Z,5.03
2022-10-29T02:52:41.584Z,4.90
2022-10-29T02:53:45.274Z,5.03
2022-10-29T02:54:50.958Z,4.25
2022-10-29T02:55:52.762Z,4.90
2022-10-29T02:56:57.621Z,5.13
2022-10-29T02:57:59.936Z,5.00
2022-10-29T02:59:04.288Z,5.13
2022-10-29T03:00:09.128Z,5.10
2022-10-29T03:01:10.571Z,4.93
2022-10-29T03:02:14.452Z,5.35
2022-10-29T03:03:16.770Z,4.53
2022-10-29T03:04:18.408Z,4.90
2022-10-29T03:05:20.899Z,5.07
2022-10-29T03:06:28.647Z,5.38
2022-10-29T03:07:34.308Z,5.05
2022-10-29T03:08:35.769Z,4.80
2022-10-29T03:09:37.900Z,4.88
2022-10-29T03:10:39.296Z,5.43
2022-10-29T03:11:41.786Z,5.28
2022-10-29T03:12:43.718Z,5.18
2022-10-29T03:13:45.077Z,4.68
2022-10-29T03:14:46.384Z,4.30
2022-10-29T03:15:47.788Z,3.80
2022-10-29T03:16:52.056Z,3.40
2022-10-29T03:17:54.098Z,3.55
2022-10-29T03:18:55.814Z,3.50
2022-10-29T03:19:59.969Z,2.95
2022-10-29T03:21:02.865Z,3.53
2022-10-29T03:22:04.836Z,3.58
2022-10-29T03:23:09.824Z,3.33
2022-10-29T03:24:14.643Z,3.47
2022-10-29T03:25:17.163Z,3.30
2022-10-29T03:26:19.125Z,3.42
2022-10-29T03:27:21.264Z,3.03
2022-10-29T03:28:26.223Z,3.60
2022-10-29T03:29:30.073Z,3.60
2022-10-29T03:30:31.869Z,3.70
2022-10-29T03:31:35.971Z,3.58
2022-10-29T03:32:41.914Z,3.97
2022-10-29T03:33:44.608Z,3.95
2022-10-29T03:34:46.762Z,3.80
2022-10-29T03:35:49.402Z,4.20
2022-10-29T03:36:51.091Z,3.58
2022-10-29T03:37:52.928Z,3.95
2022-10-29T03:38:54.940Z,3.80
2022-10-29T03:39:59.404Z,4.15
2022-10-29T03:41:00.984Z,4.80
2022-10-29T03:42:06.817Z,4.20
2022-10-29T03:43:08.788Z,4.32
2022-10-29T03:44:11.470Z,4.20
2022-10-29T03:45:16.863Z,3.95
2022-10-29T03:46:22.610Z,4.35
2022-10-29T03:47:27.280Z,4.90
2022-10-29T03:48:28.596Z,4.00
2022-10-29T03:49:30.784Z,4.45
2022-10-29T03:50:33.160Z,4.32
2022-10-29T03:51:34.908Z,4.68
2022-10-29T03:52:37.488Z,4.35
2022-10-29T03:53:39.272Z,4.50
2022-10-29T03:54:44.469Z,4.50
2022-10-29T03:55:45.801Z,5.25
2022-10-29T03:56:48.299Z,4.53
2022-10-29T03:57:49.848Z,4.88
2022-10-29T03:58:52.120Z,5.20
2022-10-29T03:59:54.173Z,5.00
2022-10-29T04:01:02.987Z,5.07
2022-10-29T04:02:04.921Z,5.00
2022-10-29T04:03:07.876Z,5.15
2022-10-29T04:04:10.111Z,5.43
2022-10-29T04:05:13.938Z,5.45
2022-10-29T04:06:16.221Z,4.80
2022-10-29T04:07:19.020Z,5.28
2022-10-29T04:08:20.404Z,4.60
2022-10-29T04:09:24.673Z,5.00
2022-10-29T04:10:26.857Z,4.70
2022-10-29T04:11:29.528Z,5.00
2022-10-29T04:12:30.932Z,4.78
2022-10-29T04:13:33.637Z,4.55
2022-10-29T04:14:38.083Z,4.70
2022-10-29T04:15:46.936Z,5.25
2022-10-29T04:16:48.805Z,5.15
2022-10-29T04:17:52.420Z,5.60
2022-10-29T04:18:53.961Z,4.95
2022-10-29T04:19:55.524Z,4.68
2022-10-29T04:28:18.150Z,8.60
2022-10-29T04:29:21.853Z,10.88
2022-10-29T04:30:24.679Z,9.43
2022-10-29T04:31:29.865Z,7.20
2022-10-29T04:32:33.093Z,6.15
2022-10-29T04:33:34.910Z,6.13
2022-10-29T04:34:37.569Z,6.88
2022-10-29T04:35:42.744Z,6.82
2022-10-29T04:36:45.243Z,7.00
2022-10-29T04:37:46.928Z,8.52
2022-10-29T04:38:49.935Z,7.18
2022-10-29T04:39:52.649Z,5.30
2022-10-29T04:40:59.975Z,5.80
2022-10-29T04:42:05.254Z,5.20
2022-10-29T04:43:06.561Z,4.05
2022-10-29T04:44:07.797Z,4.15
2022-10-29T04:45:09.322Z,4.10
2022-10-29T04:46:11.472Z,4.13
2022-10-29T04:47:13.173Z,3.83
2022-10-29T04:48:17.301Z,4.13
2022-10-29T04:49:19.107Z,3.95
2022-10-29T04:50:22.792Z,4.25
2022-10-29T04:51:25.759Z,3.70
2022-10-29T04:52:30.345Z,4.05
2022-10-29T04:53:32.049Z,3.90
2022-10-29T04:54:33.944Z,3.85
2022-10-29T04:55:38.729Z,4.25
2022-10-29T04:56:43.432Z,4.78
2022-10-29T04:57:49.256Z,3.85
2022-10-29T04:58:54.981Z,5.00
2022-10-29T04:59:56.814Z,5.90
2022-10-29T05:01:02.901Z,4.85
2022-10-29T05:02:05.159Z,5.15
2022-10-29T05:03:08.073Z,4.72
2022-10-29T05:04:11.737Z,4.83
2022-10-29T05:05:14.135Z,4.22
2022-10-29T05:06:16.726Z,4.55
2022-10-29T05:07:22.586Z,5.10
2022-10-29T05:08:23.841Z,4.80
2022-10-29T05:09:26.402Z,4.50
2022-10-29T05:10:29.902Z,4.30
2022-10-29T05:11:32.580Z,4.00
2022-10-29T05:12:34.939Z,4.55
2022-10-29T05:13:36.653Z,4.43
2022-10-29T05:14:38.973Z,4.60
2022-10-29T05:15:40.683Z,4.60
2022-10-29T05:16:43.088Z,4.68
2022-10-29T05:17:45.426Z,5.25
2022-10-29T05:18:46.860Z,5.32
2022-10-29T05:19:49.701Z,5.50
2022-10-29T05:20:56.696Z,5.10
2022-10-29T05:21:58.100Z,5.70
2022-10-29T05:22:59.993Z,4.82
2022-10-29T05:24:02.821Z,5.20
2022-10-29T05:25:04.481Z,4.93
2022-10-29T05:26:05.888Z,5.22
2022-10-29T05:27:07.446Z,4.57
2022-10-29T05:28:29.684Z,4.50
2022-10-29T05:29:31.832Z,4.45
2022-10-29T05:30:36.641Z,4.97
2022-10-29T05:31:39.932Z,5.20
2022-10-29T05:32:42.777Z,3.97
2022-10-29T05:33:45.206Z,4.50
2022-10-29T05:34:46.946Z,4.65
2022-10-29T05:35:49.022Z,4.57
2022-10-29T05:36:50.856Z,4.13
2022-10-29T05:37:53.690Z,4.00
2022-10-29T05:38:56.821Z,4.40
2022-10-29T05:39:58.864Z,5.32
2022-10-29T05:41:05.336Z,4.90
2022-10-29T05:42:09.316Z,4.93
2022-10-29T05:43:14.772Z,5.10
2022-10-29T05:44:17.961Z,5.32
2022-10-29T05:45:22.617Z,5.13
2022-10-29T05:46:23.899Z,5.00
2022-10-29T05:47:25.959Z,5.03
2022-10-29T05:48:30.048Z,5.03
2022-10-29T05:49:32.538Z,4.90
2022-10-29T05:50:34.544Z,5.00
2022-10-29T05:51:38.394Z,5.07
2022-10-29T05:52:42.268Z,5.18
2022-10-29T05:53:47.524Z,4.85
2022-10-29T05:54:50.904Z,5.13
2022-10-29T05:55:53.975Z,5.40
2022-10-29T05:56:58.089Z,5.13
2022-10-29T05:58:01.083Z,5.05
2022-10-29T05:59:02.877Z,5.47
2022-10-29T06:00:05.883Z,5.32
2022-10-29T06:01:13.034Z,4.60
2022-10-29T06:02:14.588Z,6.00
2022-10-29T06:03:18.504Z,5.20
2022-10-29T06:04:21.090Z,5.32
2022-10-29T06:05:23.398Z,5.43
2022-10-29T06:06:31.418Z,5.28
2022-10-29T06:07:32.956Z,5.45
2022-10-29T06:08:34.974Z,5.30
2022-10-29T06:09:36.901Z,5.72
2022-10-29T06:10:39.785Z,5.30
2022-10-29T06:11:44.309Z,5.47
2022-10-29T06:12:45.539Z,5.35
2022-10-29T06:13:47.011Z,5.70
2022-10-29T06:14:49.909Z,5.20
2022-10-29T06:15:56.342Z,5.75
2022-10-29T06:17:00.262Z,5.50
2022-10-29T06:18:02.529Z,5.40
2022-10-29T06:19:03.905Z,5.68
2022-10-29T06:20:10.133Z,5.90
2022-10-29T06:21:15.226Z,6.40
2022-10-29T06:22:16.970Z,6.60
2022-10-29T06:23:19.450Z,8.57
2022-10-29T06:24:21.019Z,7.32
2022-10-29T06:25:24.486Z,7.45
2022-10-29T06:26:27.333Z,6.95
2022-10-29T06:27:28.968Z,6.07
2022-10-29T06:28:34.501Z,6.78
2022-10-29T06:29:36.867Z,4.85
2022-10-29T06:30:39.008Z,4.85
2022-10-29T06:31:41.412Z,4.00
2022-10-29T06:32:46.667Z,4.57
2022-10-29T06:33:49.374Z,4.82
2022-10-29T06:34:51.003Z,4.60
2022-10-29T06:36:00.512Z,4.68
2022-10-29T06:37:01.993Z,4.80
2022-10-29T06:38:09.390Z,4.47
2022-10-29T06:39:15.880Z,4.40
2022-10-29T06:40:19.558Z,4.30
2022-10-29T06:41:25.561Z,4.53
2022-10-29T06:42:30.479Z,5.10
2022-10-29T06:43:35.875Z,4.60
2022-10-29T06:44:40.392Z,4.83
2022-10-29T06:45:45.312Z,5.38
2022-10-29T06:46:49.088Z,5.38
2022-10-29T06:47:51.081Z,5.32
2022-10-29T06:48:53.574Z,6.20
2022-10-29T06:49:54.865Z,6.30
2022-10-29T06:51:00.747Z,6.00
2022-10-29T06:52:05.279Z,6.20
2022-10-29T06:53:14.297Z,5.95
2022-10-29T06:54:17.593Z,6.03
2022-10-29T06:55:20.361Z,6.10
2022-10-29T06:56:22.518Z,5.70
2022-10-29T06:57:25.109Z,5.97
2022-10-29T06:58:26.955Z,5.63
2022-10-29T06:59:32.621Z,6.00
2022-10-29T07:00:35.637Z,6.40
2022-10-29T07:01:39.352Z,7.63
2022-10-29T07:02:42.271Z,7.10
2022-10-29T07:03:47.972Z,6.25
2022-10-29T07:04:50.037Z,6.73
2022-10-29T07:05:59.403Z,6.88
2022-10-29T07:07:00.879Z,6.68
2022-10-29T07:08:05.721Z,7.25
2022-10-29T07:09:10.232Z,6.80
2022-10-29T07:10:15.324Z,6.90
2022-10-29T07:11:18.620Z,6.70
2022-10-29T07:12:23.230Z,7.53
2022-10-29T07:13:25.137Z,6.68
2022-10-29T07:14:30.233Z,6.90
2022-10-29T07:15:33.121Z,6.28
2022-10-29T07:16:38.202Z,6.60
2022-10-29T07:17:39.502Z,6.65
2022-10-29T07:18:44.233Z,5.97
2022-10-29T07:19:47.114Z,5.65
2022-10-29T07:20:48.647Z,5.93
2022-10-29T07:21:49.870Z,6.03
2022-10-29T07:22:52.252Z,6.07
2022-10-29T07:23:58.223Z,6.72
2022-10-29T07:25:01.262Z,6.70
2022-10-29T07:26:04.048Z,6.80
2022-10-29T07:27:09.653Z,6.28
2022-10-29T07:28:29.987Z,6.78
2022-10-29T07:29:31.937Z,6.28
2022-10-29T07:30:33.805Z,6.20
2022-10-29T07:31:38.867Z,6.25
2022-10-29T07:32:40.122Z,6.68
2022-10-29T07:33:42.029Z,6.47
2022-10-29T07:34:43.753Z,6.60
2022-10-29T07:35:48.879Z,6.20
2022-10-29T07:36:50.449Z,6.28
2022-10-29T07:37:51.914Z,6.28
2022-10-29T07:38:53.228Z,6.28
2022-10-29T07:39:55.242Z,6.15
2022-10-29T07:40:56.909Z,6.55
2022-10-29T07:41:59.610Z,6.88
2022-10-29T07:43:03.324Z,6.50
2022-10-29T07:44:06.026Z,6.88
2022-10-29T07:45:10.258Z,7.28
2022-10-29T07:46:15.477Z,9.15
2022-10-29T07:47:17.010Z,8.65
2022-10-29T07:48:20.419Z,8.40
2022-10-29T07:49:24.233Z,6.85
2022-10-29T07:50:28.011Z,6.20
2022-10-29T07:51:30.716Z,6.28
2022-10-29T07:52:34.596Z,6.63
2022-10-29T07:53:36.072Z,6.53
2022-10-29T07:54:40.907Z,6.13
2022-10-29T07:55:47.168Z,6.68
2022-10-29T07:56:57.586Z,6.18
2022-10-29T07:58:02.317Z,6.38
2022-10-29T07:59:04.106Z,5.32
2022-10-29T08:00:09.236Z,5.40
2022-10-29T08:01:14.712Z,5.53
2022-10-29T08:02:17.099Z,5.32
2022-10-29T08:03:20.023Z,5.05
2022-10-29T08:04:22.346Z,4.47
2022-10-29T08:05:26.320Z,4.85
2022-10-29T08:06:27.991Z,4.10
2022-10-29T08:07:31.551Z,4.10
2022-10-29T08:08:34.781Z,4.78
2022-10-29T08:09:37.350Z,4.82
2022-10-29T08:10:39.113Z,4.90
2022-10-29T08:11:41.088Z,4.40
2022-10-29T08:13:04.058Z,4.35
2022-10-29T08:14:08.861Z,4.30
2022-10-29T08:15:11.297Z,5.18
2022-10-29T08:16:13.080Z,5.30
2022-10-29T08:17:15.818Z,4.20
2022-10-29T08:18:20.788Z,4.72
2022-10-29T08:19:22.987Z,4.78
2022-10-29T08:20:26.554Z,4.30
2022-10-29T08:21:30.552Z,4.47
2022-10-29T08:22:31.994Z,4.53
2022-10-29T08:23:41.226Z,3.92
2022-10-29T08:24:45.541Z,4.50
2022-10-29T08:25:47.132Z,4.65
2022-10-29T08:26:49.965Z,4.28
2022-10-29T08:28:05.570Z,4.65
2022-10-29T08:29:10.681Z,4.82
2022-10-29T08:30:16.836Z,4.88
2022-10-29T08:31:19.457Z,4.60
2022-10-29T08:32:23.842Z,4.93
2022-10-29T08:33:27.190Z,4.78
2022-10-29T08:34:29.693Z,4.65
2022-10-29T08:35:32.802Z,4.05
2022-10-29T08:36:35.921Z,4.85
2022-10-29T08:37:41.390Z,4.25
2022-10-29T08:38:43.869Z,4.40
2022-10-29T08:39:46.056Z,4.22
2022-10-29T08:40:59.004Z,4.70
2022-10-29T08:42:15.042Z,4.93
2022-10-29T08:43:35.604Z,4.28
2022-10-29T08:44:52.187Z,4.80
2022-10-29T08:45:55.429Z,5.97
2022-10-29T08:50:22.244Z,5.03
2022-10-29T09:00:13.474Z,4.30
2022-10-29T09:01:18.554Z,4.88
2022-10-29T09:02:20.576Z,5.60
2022-10-29T09:03:23.188Z,5.13
2022-10-29T09:06:32.250Z,5.78
2022-10-29T09:08:02.171Z,4.80
2022-10-29T09:09:23.700Z,4.55
2022-10-29T09:10:44.994Z,4.72
2022-10-29T09:12:05.822Z,5.28
2022-10-29T09:13:16.111Z,4.45
2022-10-29T09:14:39.921Z,4.50
2022-10-29T09:15:57.515Z,5.00
2022-10-29T09:17:18.924Z,4.82
2022-10-29T09:18:47.378Z,4.78
2022-10-29T09:20:10.038Z,4.53
2022-10-29T09:21:25.296Z,4.20
2022-10-29T09:22:55.394Z,5.15
2022-10-29T09:24:15.501Z,4.30
2022-10-29T09:25:36.864Z,4.85
2022-10-29T09:26:57.331Z,4.45
2022-10-29T09:28:17.185Z,4.38
2022-10-29T09:29:29.401Z,4.28
2022-10-29T09:30:39.926Z,4.55
2022-10-29T09:31:50.977Z,4.65
2022-10-29T09:33:09.045Z,4.03
2022-10-29T09:34:18.284Z,4.53
2022-10-29T09:35:24.946Z,3.83
2022-10-29T09:36:27.422Z,4.22
2022-10-29T09:37:35.848Z,4.43
2022-10-29T09:38:45.102Z,4.28
2022-10-29T09:39:48.205Z,4.82
2022-10-29T09:40:51.058Z,5.20
2022-10-29T09:41:56.785Z,6.00
2022-10-29T09:43:04.317Z,5.28
2022-10-29T09:44:06.340Z,4.65
2022-10-29T09:45:14.060Z,5.18
2022-10-29T09:46:33.999Z,5.10
2022-10-29T09:47:43.976Z,4.45
2022-10-29T09:49:04.929Z,4.40
2022-10-29T09:50:27.239Z,4.00
2022-10-29T09:51:49.922Z,3.88
2022-10-29T09:52:52.652Z,4.30
2022-10-29T09:53:54.294Z,4.10
2022-10-29T09:54:58.824Z,4.38
2022-10-29T09:56:01.697Z,4.32
2022-10-29T09:57:14.484Z,4.68
2022-10-29T09:58:25.806Z,4.47
2022-10-29T09:59:46.810Z,3.97
2022-10-29T10:00:52.679Z,4.35
2022-10-29T10:01:54.979Z,4.28
2022-10-29T10:03:15.674Z,4.28
2022-10-29T10:04:36.245Z,5.87
2022-10-29T10:06:00.319Z,4.05
2022-10-29T10:07:16.255Z,3.88
2022-10-29T10:08:18.867Z,3.92
2022-10-29T10:09:20.993Z,4.57
2022-10-29T10:10:24.944Z,4.57
2022-10-29T10:11:30.347Z,5.20
2022-10-29T10:12:50.496Z,5.00
2022-10-29T10:14:07.137Z,5.10
2022-10-29T10:15:26.854Z,4.50
2022-10-29T10:16:31.689Z,4.15
2022-10-29T10:18:04.172Z,4.13
2022-10-29T10:19:21.189Z,4.30
2022-10-29T10:20:41.080Z,3.95
2022-10-29T10:21:43.797Z,4.00
2022-10-29T10:22:50.667Z,3.80
2022-10-29T10:23:53.574Z,3.97
2022-10-29T10:24:56.407Z,3.67
2022-10-29T10:26:03.835Z,3.75
2022-10-29T10:27:25.053Z,3.90
2022-10-29T10:28:31.153Z,3.92
2022-10-29T10:29:33.453Z,4.20
2022-10-29T10:30:35.429Z,3.58
2022-10-29T10:31:38.541Z,3.65
2022-10-29T10:32:40.182Z,3.80
2022-10-29T10:33:56.837Z,4.18
2022-10-29T10:34:59.053Z,3.80
2022-10-29T10:36:04.400Z,4.00
2022-10-29T10:37:24.478Z,3.67
2022-10-29T10:38:26.966Z,3.92
2022-10-29T10:39:39.859Z,4.30
2022-10-29T10:40:42.821Z,4.10
2022-10-29T10:41:46.453Z,3.92
2022-10-29T10:42:48.207Z,4.38
2022-10-29T10:43:54.369Z,4.28
2022-10-29T10:45:10.018Z,4.03
2022-10-29T10:46:23.048Z,4.05
2022-10-29T10:47:31.249Z,4.15
2022-10-29T10:49:39.324Z,5.45
2022-10-29T10:50:41.316Z,5.63
2022-10-29T10:51:46.248Z,6.05
2022-10-29T10:52:49.956Z,4.10
2022-10-29T10:53:52.823Z,4.03
2022-10-29T10:54:57.344Z,4.47
2022-10-29T10:56:00.110Z,4.22
2022-10-29T10:57:03.336Z,4.30
2022-10-29T10:58:20.168Z,12.70
2022-10-29T10:59:22.909Z,4.45
2022-10-29T11:00:29.606Z,4.73
2022-10-29T11:01:44.750Z,3.85
2022-10-29T11:02:54.630Z,3.63
2022-10-29T11:04:03.582Z,3.90
2022-10-29T11:05:24.048Z,3.53
2022-10-29T11:06:30.651Z,3.40
2022-10-29T11:07:35.646Z,5.00
2022-10-29T11:08:40.804Z,3.47
2022-10-29T11:09:46.733Z,4.65
2022-10-29T11:11:07.133Z,4.05
2022-10-29T11:12:15.624Z,4.03
2022-10-29T11:13:20.162Z,3.78
2022-10-29T11:14:25.047Z,3.45
2022-10-29T11:15:47.520Z,3.80
2022-10-29T11:16:51.852Z,6.28
2022-10-29T11:17:54.710Z,5.25
2022-10-29T11:19:15.564Z,5.25
2022-10-29T11:20:25.995Z,4.22
2022-10-29T11:21:34.319Z,4.13
2022-10-29T11:23:01.366Z,6.22
2022-10-29T11:24:15.566Z,3.90
2022-10-29T11:25:37.976Z,3.60
2022-10-29T11:27:01.051Z,3.88
2022-10-29T11:28:21.790Z,3.60
2022-10-29T11:29:25.335Z,4.20
2022-10-29T11:30:28.792Z,4.00
2022-10-29T11:31:49.847Z,4.32
2022-10-29T11:33:09.984Z,4.63
2022-10-29T11:34:31.254Z,4.30
2022-10-29T11:35:47.721Z,4.25
2022-10-29T11:37:05.001Z,4.38
2022-10-29T11:38:28.395Z,4.97
2022-10-29T11:39:51.310Z,4.90
2022-10-29T11:41:04.844Z,4.38
2022-10-29T11:42:12.346Z,5.80
2022-10-29T11:43:15.143Z,4.85
2022-10-29T11:44:20.747Z,4.32
2022-10-29T11:45:40.020Z,5.25
2022-10-29T11:46:59.915Z,4.80
2022-10-29T11:48:33.942Z,4.50
2022-10-29T11:50:18.433Z,5.05
2022-10-29T11:51:45.069Z,4.30
2022-10-29T11:53:03.222Z,4.78
2022-10-29T11:54:13.632Z,4.85
2022-10-29T11:55:22.744Z,4.30
2022-10-29T11:56:43.086Z,4.22
2022-10-29T11:58:24.212Z,4.80
2022-10-29T11:59:40.444Z,4.22
2022-10-29T12:01:00.496Z,4.43
2022-10-29T12:02:07.741Z,4.57
2022-10-29T12:03:41.367Z,5.33
2022-10-29T12:05:09.739Z,4.78
2022-10-29T12:06:30.115Z,4.20
2022-10-29T12:08:00.606Z,4.30
2022-10-29T12:09:24.363Z,4.97
2022-10-29T12:10:44.319Z,4.75
2022-10-29T12:12:07.312Z,4.30
2022-10-29T12:13:27.252Z,4.25
2022-10-29T12:14:48.371Z,6.10
2022-10-29T12:16:12.313Z,4.55
2022-10-29T12:17:29.759Z,3.78
2022-10-29T12:18:35.052Z,4.13
2022-10-29T12:19:54.905Z,4.25
2022-10-29T12:21:02.060Z,4.00
2022-10-29T12:22:23.421Z,3.80
2022-10-29T12:23:25.550Z,3.90
2022-10-29T12:24:45.721Z,3.50
2022-10-29T12:25:55.984Z,4.35
2022-10-29T12:28:19.591Z,3.83
2022-10-29T12:29:48.167Z,4.03
2022-10-29T12:31:00.820Z,4.47
2022-10-29T12:32:23.363Z,4.47
2022-10-29T12:33:27.960Z,4.10
2022-10-29T12:34:40.912Z,3.80
2022-10-29T12:35:47.594Z,3.90
2022-10-29T12:36:53.446Z,3.72
2022-10-29T12:38:10.175Z,4.25
2022-10-29T12:41:46.146Z,4.00
2022-10-29T12:43:18.231Z,3.95
2022-10-29T12:44:45.044Z,4.30
2022-10-29T12:46:19.527Z,3.72
2022-10-29T12:47:33.964Z,3.25
2022-10-29T12:48:54.036Z,3.60
2022-10-29T12:50:03.994Z,3.55
2022-10-29T12:51:24.114Z,3.55
2022-10-29T12:52:51.419Z,3.75
2022-10-29T12:54:14.854Z,3.80
2022-10-29T12:55:17.748Z,3.60
2022-10-29T12:56:20.181Z,4.20
2022-10-29T12:57:36.236Z,4.10
2022-10-29T12:58:57.506Z,4.60
2022-10-29T13:00:18.688Z,4.55
2022-10-29T13:01:57.223Z,4.85
2022-10-29T13:02:55.501Z,4.50
2022-10-29T13:04:15.808Z,4.43
2022-10-29T13:05:37.408Z,4.22
2022-10-29T13:06:49.052Z,4.57
2022-10-29T13:08:03.092Z,4.20
2022-10-29T13:09:23.237Z,4.35
2022-10-29T13:10:26.553Z,4.05
2022-10-29T13:11:45.767Z,3.90
2022-10-29T13:13:08.403Z,4.43
2022-10-29T13:14:18.333Z,4.70
2022-10-29T13:18:57.673Z,3.72
2022-10-29T13:20:18.136Z,4.00
2022-10-29T13:21:53.125Z,4.72
2022-10-29T13:23:15.474Z,4.53
2022-10-29T13:24:17.388Z,4.30
2022-10-29T13:26:42.055Z,4.70
2022-10-29T13:27:46.791Z,5.35
2022-10-29T13:28:50.987Z,4.22
2022-10-29T13:30:10.932Z,3.83
2022-10-29T13:31:14.608Z,5.25
2022-10-29T13:32:34.926Z,5.18
2022-10-29T13:34:57.206Z,4.13
2022-10-29T13:36:28.325Z,4.20
2022-10-29T13:37:45.579Z,4.43
2022-10-29T13:39:05.733Z,4.10
2022-10-29T13:40:28.840Z,4.45
2022-10-29T13:41:52.142Z,4.20
2022-10-29T13:49:13.332Z,3.75
2022-10-29T13:50:17.902Z,4.20
2022-10-29T13:51:24.971Z,4.00
2022-10-29T13:52:27.488Z,5.40
2022-10-29T13:53:35.468Z,4.50
2022-10-29T13:54:54.817Z,3.95
2022-10-29T13:55:58.009Z,3.90
2022-10-29T13:57:17.799Z,3.72
2022-10-29T13:58:31.496Z,5.15
2022-10-29T15:44:44.352Z,7.55
2022-10-29T15:45:56.679Z,8.25
2022-10-29T15:47:01.644Z,7.38
2022-10-29T15:48:12.456Z,6.80
2022-10-29T15:49:17.467Z,6.40
2022-10-29T15:50:24.032Z,7.53
2022-10-29T15:51:27.069Z,7.07
2022-10-29T15:52:37.932Z,5.82
2022-10-29T15:53:41.805Z,6.18
2022-10-29T15:54:46.902Z,6.55
2022-10-29T15:55:50.912Z,7.47
2022-10-29T15:56:52.636Z,8.02
2022-10-29T15:57:56.088Z,9.80
2022-10-29T15:59:01.894Z,11.82
2022-10-29T16:00:07.498Z,12.00
2022-10-29T16:01:09.463Z,12.38
2022-10-29T16:02:12.586Z,10.95
2022-10-29T16:03:35.455Z,10.52
2022-10-29T16:04:41.427Z,10.52
2022-10-29T16:05:43.675Z,10.98
2022-10-29T16:06:46.136Z,8.25
2022-10-29T16:07:48.953Z,11.88
2022-10-29T16:08:51.754Z,11.27
2022-10-29T16:09:54.773Z,11.73
2022-10-29T16:10:59.881Z,11.70
2022-10-29T16:12:04.602Z,12.85
2022-10-29T16:13:09.437Z,14.45
2022-10-29T16:14:12.275Z,15.03
2022-10-29T16:15:21.500Z,15.20
2022-10-29T16:16:25.830Z,13.93
2022-10-29T16:17:28.151Z,13.88
2022-10-29T16:18:32.675Z,15.30
2022-10-29T16:19:35.664Z,13.97
2022-10-29T16:20:37.411Z,11.93
2022-10-29T16:21:40.448Z,12.63
2022-10-29T16:22:43.256Z,13.80
2022-10-29T16:23:45.731Z,14.50
2022-10-29T16:24:48.137Z,13.25
2022-10-29T16:25:51.619Z,13.25
2022-10-29T16:26:54.237Z,11.60
2022-10-29T16:27:59.076Z,11.30
2022-10-29T16:29:02.281Z,11.90
2022-10-29T16:30:06.140Z,11.48
2022-10-29T16:31:15.337Z,12.18
2022-10-29T16:32:20.428Z,12.10
2022-10-29T16:33:22.859Z,11.20
2022-10-29T16:34:25.232Z,11.85
2022-10-29T16:35:37.466Z,12.55
2022-10-29T16:36:39.406Z,11.70
2022-10-29T16:37:42.008Z,11.02
2022-10-29T16:38:44.601Z,7.63
2022-10-29T16:39:46.338Z,7.10
2022-10-29T16:40:50.832Z,6.88
2022-10-29T16:41:53.269Z,7.05
2022-10-29T16:42:56.611Z,8.18
2022-10-29T16:43:58.268Z,9.18
2022-10-29T16:45:02.977Z,8.32
2022-10-29T16:46:05.640Z,9.05
2022-10-29T16:47:08.496Z,10.63
2022-10-29T16:48:12.478Z,12.25
2022-10-29T16:49:15.347Z,11.70
2022-10-29T16:50:30.211Z,11.00
2022-10-29T16:51:33.270Z,11.63
2022-10-29T16:52:37.572Z,11.43
2022-10-29T16:53:40.182Z,11.00
2022-10-29T16:54:42.341Z,10.75
2022-10-29T16:55:44.603Z,11.85
2022-10-29T16:56:47.333Z,11.00
2022-10-29T16:57:52.473Z,14.23
2022-10-29T16:59:01.564Z,14.00
2022-10-29T17:00:04.765Z,14.00
2022-10-29T17:01:10.071Z,14.88
2022-10-29T17:02:13.364Z,14.77
2022-10-29T17:03:16.060Z,15.02
2022-10-29T17:04:18.989Z,15.13
2022-10-29T17:05:22.154Z,13.60
2022-10-29T17:06:26.255Z,13.50
2022-10-29T17:07:28.833Z,11.95
2022-10-29T17:08:34.653Z,12.40
2022-10-29T17:09:37.459Z,12.50
2022-10-29T17:10:40.201Z,12.82
2022-10-29T17:11:42.538Z,12.48
2022-10-29T17:12:44.939Z,12.32
2022-10-29T17:13:47.625Z,13.48
2022-10-29T17:14:52.296Z,13.27
2022-10-29T17:15:54.661Z,12.80
2022-10-29T17:16:57.234Z,12.10
2022-10-29T17:18:00.704Z,12.43